Time;durP1;ratioP1;P1;durP2;ratioP2;P2;SDS_P1;SDS_P2;PMS_P1;PMS_P2;Temp;Humidity;BMP_temperature;BMP_pressure;BME280_temperature;BME280_humidity;BME280_pressure;Samples;Min_cycle;Max_cycle;Signal;HPM_P1;HPM_P2
2023/01/25 00:01:07;;;;;;;106.47;53.93;;;;;;;0.79;100.00;97786.44;5031987;27;101784;-64
2023/01/25 00:03:34;;;;;;;121.93;59.80;;;;;;;0.90;100.00;97783.53;5031006;28;102276;-64
2023/01/25 00:06:02;;;;;;;83.23;44.13;;;;;;;0.90;100.00;97775.69;5030885;28;105460;-64
2023/01/25 00:08:30;;;;;;;159.80;74.27;;;;;;;0.92;100.00;97776.34;5030922;28;105083;-64
2023/01/25 00:11:00;;;;;;;86.67;46.33;;;;;;;0.96;100.00;97777.69;5030073;28;101899;-64
2023/01/25 00:13:27;;;;;;;193.30;88.70;;;;;;;0.85;100.00;97777.97;5032898;28;102858;-64
2023/01/25 00:15:54;;;;;;;230.47;106.40;;;;;;;0.81;100.00;97774.84;5034986;27;102542;-64
2023/01/25 00:18:21;;;;;;;150.77;70.73;;;;;;;0.93;100.00;97767.53;5030519;27;102560;-64
2023/01/25 00:20:48;;;;;;;77.30;44.23;;;;;;;0.92;100.00;97771.09;5031256;27;102474;-64
2023/01/25 00:23:16;;;;;;;155.83;73.90;;;;;;;0.91;100.00;97772.91;5030777;27;101894;-64
2023/01/25 00:25:45;;;;;;;59.97;35.93;;;;;;;0.99;100.00;97766.91;5031092;28;101723;-64
2023/01/25 00:28:13;;;;;;;64.60;38.27;;;;;;;1.00;100.00;97774.56;5031235;27;103088;-64
2023/01/25 00:30:43;;;;;;;143.93;66.23;;;;;;;1.11;100.00;97766.44;5030608;28;102105;-64
2023/01/25 00:33:35;;;;;;;67.30;38.87;;;;;;;1.17;100.00;97775.47;5032028;27;102308;-64
2023/01/25 00:36:04;;;;;;;56.07;35.63;;;;;;;1.08;100.00;97772.00;5030545;28;105817;-64
2023/01/25 00:38:35;;;;;;;58.80;36.37;;;;;;;1.15;100.00;97772.22;5032686;27;101798;-64
2023/01/25 00:41:01;;;;;;;60.33;35.53;;;;;;;1.29;100.00;97766.34;5030779;28;105022;-64
2023/01/25 00:43:32;;;;;;;58.00;35.63;;;;;;;1.22;100.00;97766.16;5030167;28;101851;-64
2023/01/25 00:46:00;;;;;;;60.97;34.97;;;;;;;1.19;100.00;97768.25;5031103;28;105670;-64
2023/01/25 00:48:27;;;;;;;54.30;34.43;;;;;;;1.23;100.00;97769.59;5032111;27;102480;-64
2023/01/25 00:50:55;;;;;;;51.60;32.93;;;;;;;1.23;100.00;97769.59;5032296;27;101796;-64
2023/01/25 00:53:22;;;;;;;53.57;31.20;;;;;;;1.24;100.00;97774.69;5029986;28;103761;-64
2023/01/25 00:55:52;;;;;;;51.33;32.00;;;;;;;1.24;100.00;97772.06;5031543;27;102522;-64
2023/01/25 00:58:22;;;;;;;51.97;31.13;;;;;;;1.27;100.00;97776.97;5031122;28;101758;-64
2023/01/25 01:00:52;;;;;;;53.37;32.70;;;;;;;1.21;100.00;97782.06;5018045;28;105279;-64
2023/01/25 01:03:20;;;;;;;52.27;32.93;;;;;;;1.22;100.00;97783.69;5031424;28;101776;-64
2023/01/25 01:05:47;;;;;;;52.77;31.43;;;;;;;1.21;100.00;97780.22;5030475;28;105127;-64
2023/01/25 01:08:15;;;;;;;56.50;33.43;;;;;;;1.18;100.00;97777.13;5029383;28;105095;-64
2023/01/25 01:10:42;;;;;;;50.80;32.13;;;;;;;1.27;100.00;97784.03;5032701;27;101831;-64
2023/01/25 01:13:11;;;;;;;52.97;31.63;;;;;;;1.22;100.00;97786.31;5031357;28;103850;-64
2023/01/25 01:15:38;;;;;;;49.80;31.67;;;;;;;1.20;100.00;97785.66;5030280;28;104226;-64
2023/01/25 01:18:07;;;;;;;46.93;31.27;;;;;;;1.24;100.00;97781.72;5031729;27;101762;-63
2023/01/25 01:20:35;;;;;;;49.73;30.87;;;;;;;1.31;100.00;97783.53;5030051;28;106008;-64
2023/01/25 01:23:02;;;;;;;47.57;30.87;;;;;;;1.32;100.00;97779.13;5033934;28;105697;-64
2023/01/25 01:25:28;;;;;;;49.67;30.13;;;;;;;1.35;100.00;97777.00;5030255;28;103714;-64
2023/01/25 01:27:56;;;;;;;49.87;30.10;;;;;;;1.38;100.00;97778.50;5030885;27;102752;-64
2023/01/25 01:30:24;;;;;;;42.47;28.60;;;;;;;1.26;100.00;97779.78;5031053;28;101873;-64
2023/01/25 01:32:52;;;;;;;43.40;29.17;;;;;;;1.18;100.00;97783.19;5031052;28;104844;-64
2023/01/25 01:35:21;;;;;;;43.53;28.47;;;;;;;1.19;100.00;97778.75;5032478;28;103044;-64
2023/01/25 01:37:48;;;;;;;43.60;27.73;;;;;;;1.12;100.00;97772.50;5029349;28;101818;-64
2023/01/25 01:40:16;;;;;;;41.80;28.33;;;;;;;1.18;100.00;97783.19;5031073;27;102856;-64
2023/01/25 01:43:01;;;;;;;41.10;27.50;;;;;;;1.15;100.00;97772.22;5029603;28;105052;-64
2023/01/25 01:45:50;;;;;;;37.97;26.33;;;;;;;1.21;100.00;97775.00;5033171;28;101919;-64
2023/01/25 01:48:33;;;;;;;37.90;24.97;;;;;;;1.11;100.00;97763.00;5030082;28;104614;-63
2023/01/25 01:51:13;;;;;;;39.43;25.63;;;;;;;1.16;100.00;97765.97;5030671;28;101791;-64
2023/01/25 01:53:44;;;;;;;37.60;25.27;;;;;;;1.19;100.00;97765.66;5031400;28;105454;-64
2023/01/25 01:56:16;;;;;;;30.80;22.83;;;;;;;1.17;100.00;97765.00;5030556;28;105277;-64
2023/01/25 01:58:45;;;;;;;32.63;23.57;;;;;;;1.17;100.00;97762.38;5031102;28;102048;-64
2023/01/25 02:01:15;;;;;;;33.40;22.87;;;;;;;1.05;100.00;97758.41;5031161;28;105544;-64
2023/01/25 02:03:44;;;;;;;34.40;24.13;;;;;;;1.13;100.00;97761.88;5029718;28;106587;-64
2023/01/25 02:06:16;;;;;;;31.63;22.07;;;;;;;1.17;100.00;97762.38;5030751;28;102074;-64
2023/01/25 02:08:44;;;;;;;30.80;21.80;;;;;;;1.15;100.00;97764.34;5033405;28;105084;-64
2023/01/25 02:11:12;;;;;;;27.80;20.83;;;;;;;1.15;100.00;97767.78;5031224;27;101831;-64
2023/01/25 02:13:42;;;;;;;29.13;21.63;;;;;;;1.05;100.00;97758.41;5030534;28;104835;-64
2023/01/25 02:16:16;;;;;;;30.10;21.37;;;;;;;1.11;100.00;97752.53;5030389;28;104406;-64
2023/01/25 02:18:45;;;;;;;27.27;20.60;;;;;;;1.22;100.00;97760.91;5030068;28;102077;-64
2023/01/25 02:21:13;;;;;;;27.37;20.50;;;;;;;1.09;100.00;97757.13;5031068;28;104805;-64
2023/01/25 02:23:49;;;;;;;28.47;20.73;;;;;;;1.02;100.00;97756.09;5030007;28;103882;-64
2023/01/25 02:26:20;;;;;;;29.43;20.90;;;;;;;0.98;100.00;97749.53;5032168;27;102122;-64
2023/01/25 02:28:50;;;;;;;29.13;21.27;;;;;;;0.93;100.00;97743.97;5034138;27;102500;-64
2023/01/25 02:31:18;;;;;;;27.97;20.33;;;;;;;0.87;100.00;97744.56;5030363;27;101785;-64
2023/01/25 02:33:47;;;;;;;28.07;20.67;;;;;;;0.89;100.00;97740.00;5030661;28;104821;-64
2023/01/25 02:36:20;;;;;;;26.83;20.00;;;;;;;0.82;100.00;97739.00;5030346;28;102549;-64
2023/01/25 02:38:53;;;;;;;27.00;19.77;;;;;;;0.91;100.00;97744.13;5029064;28;101771;-64
2023/01/25 02:41:27;;;;;;;23.43;18.70;;;;;;;0.80;100.00;97730.47;5029220;28;104753;-64
2023/01/25 02:43:54;;;;;;;25.27;18.07;;;;;;;0.78;100.00;97729.81;5030111;27;103125;-64
2023/01/25 02:46:28;;;;;;;27.83;18.97;;;;;;;0.71;100.00;97721.75;5029111;28;101747;-64
2023/01/25 02:48:56;;;;;;;26.17;19.00;;;;;;;0.73;100.00;97732.09;5030403;28;102328;-64
2023/01/25 02:51:25;;;;;;;25.23;18.30;;;;;;;0.76;100.00;97718.66;5031026;27;104650;-64
2023/01/25 02:53:54;;;;;;;24.47;18.77;;;;;;;0.77;100.00;97728.19;5028535;28;104882;-64
2023/01/25 02:56:24;;;;;;;27.00;19.23;;;;;;;0.83;100.00;97722.31;5027574;27;105660;-64
2023/01/25 02:58:51;;;;;;;27.10;19.93;;;;;;;0.75;100.00;97712.63;5028160;28;101839;-64
2023/01/25 03:01:22;;;;;;;24.97;18.60;;;;;;;0.76;100.00;97718.66;5029474;27;104622;-64
2023/01/25 03:03:49;;;;;;;24.87;19.03;;;;;;;0.84;100.00;97722.16;5031163;28;105506;-64
2023/01/25 03:06:17;;;;;;;26.77;19.40;;;;;;;0.70;100.00;97712.28;5031552;28;101802;-64
2023/01/25 03:08:43;;;;;;;27.67;19.13;;;;;;;0.55;100.00;97703.38;5031891;28;105733;-64
2023/01/25 03:11:12;;;;;;;28.40;19.53;;;;;;;0.50;100.00;97702.22;5032763;28;102754;-64
2023/01/25 03:13:42;;;;;;;25.93;18.70;;;;;;;0.58;100.00;97710.09;5035454;28;102120;-64
2023/01/25 03:16:11;;;;;;;26.27;18.70;;;;;;;0.66;100.00;97702.28;5032882;28;102527;-64
2023/01/25 03:18:40;;;;;;;26.47;19.03;;;;;;;0.68;100.00;97708.16;5030829;28;101834;-64
2023/01/25 03:21:09;;;;;;;26.97;19.10;;;;;;;0.79;100.00;97708.72;5031167;28;105806;-64
2023/01/25 03:23:36;;;;;;;24.10;18.73;;;;;;;0.86;100.00;97714.97;5030633;28;105028;-64
2023/01/25 03:26:09;;;;;;;24.87;18.33;;;;;;;0.72;100.00;97706.88;5031452;28;101939;-64
2023/01/25 03:28:40;;;;;;;23.10;16.93;;;;;;;0.74;100.00;97704.91;5033257;27;102880;-64
2023/01/25 03:31:15;;;;;;;25.67;17.43;;;;;;;0.77;100.00;97709.84;5030826;28;105562;-64
2023/01/25 03:33:43;;;;;;;24.87;18.47;;;;;;;0.85;100.00;97713.31;5031157;28;101818;-64
2023/01/25 03:36:11;;;;;;;25.17;17.43;;;;;;;0.94;100.00;97711.56;5034617;28;105373;-64
2023/01/25 03:38:38;;;;;;;23.47;17.73;;;;;;;0.89;100.00;97719.88;5031573;28;101868;-64
2023/01/25 03:41:11;;;;;;;25.83;17.70;;;;;;;0.77;100.00;97713.28;5032823;27;102414;-63
2023/01/25 03:43:42;;;;;;;23.40;17.13;;;;;;;0.70;100.00;97722.75;5030765;28;105566;-63
2023/01/25 03:46:10;;;;;;;21.17;16.57;;;;;;;0.80;100.00;97715.59;5031299;28;101965;-63
2023/01/25 03:48:39;;;;;;;21.93;16.90;;;;;;;0.91;100.00;97706.63;5030625;28;104898;-63
2023/01/25 03:51:06;;;;;;;24.07;16.70;;;;;;;0.95;100.00;97710.56;5031318;27;103452;-64
2023/01/25 03:53:33;;;;;;;24.57;16.93;;;;;;;0.96;100.00;97709.59;5030460;28;102120;-63
2023/01/25 03:56:16;;;;;;;22.63;17.00;;;;;;;0.92;100.00;97708.25;5031024;28;105124;-64
2023/01/25 03:58:50;;;;;;;23.73;17.10;;;;;;;0.87;100.00;97703.50;5034149;28;105481;-64
2023/01/25 04:01:19;;;;;;;23.87;17.23;;;;;;;1.00;100.00;97705.69;5032268;28;102892;-64
2023/01/25 04:03:49;;;;;;;22.00;16.40;;;;;;;0.83;100.00;97704.78;5030358;28;105816;-64
2023/01/25 04:06:17;;;;;;;23.40;17.27;;;;;;;0.92;100.00;97700.41;5031200;28;102294;-64
2023/01/25 04:08:44;;;;;;;22.77;16.30;;;;;;;0.96;100.00;97706.97;5030578;28;105185;-64
2023/01/25 04:11:12;;;;;;;22.23;16.90;;;;;;;0.97;100.00;97700.75;5013059;28;104468;-64
2023/01/25 04:13:40;;;;;;;24.43;17.33;;;;;;;0.82;100.00;97707.59;5030880;27;101978;-64
2023/01/25 04:16:12;;;;;;;23.13;17.33;;;;;;;0.77;100.00;97694.16;5030993;27;102447;-64
2023/01/25 04:19:00;;;;;;;22.13;16.67;;;;;;;0.79;100.00;97705.28;5030031;28;102178;-64
2023/01/25 04:21:28;;;;;;;21.47;15.70;;;;;;;0.89;100.00;97703.34;5033707;28;102126;-64
2023/01/25 04:23:57;;;;;;;22.23;16.90;;;;;;;0.90;100.00;97699.75;5030111;28;105941;-64
2023/01/25 04:26:25;;;;;;;24.07;16.83;;;;;;;0.73;100.00;97698.84;5030435;28;102047;-64
2023/01/25 04:28:59;;;;;;;23.30;17.57;;;;;;;0.64;100.00;97691.97;5030386;28;105057;-64
2023/01/25 04:31:27;;;;;;;23.57;17.27;;;;;;;0.67;100.00;97685.59;5029897;28;104771;-64
2023/01/25 04:33:55;;;;;;;22.73;16.23;;;;;;;0.67;100.00;97688.22;5030032;28;101924;-64
2023/01/25 04:36:24;;;;;;;24.13;17.33;;;;;;;0.66;100.00;97692.63;5030213;28;105077;-64
2023/01/25 04:38:51;;;;;;;24.20;17.73;;;;;;;0.64;100.00;97688.50;5029415;28;105514;-64
2023/01/25 04:41:20;;;;;;;25.20;18.43;;;;;;;0.68;100.00;97680.22;5033346;28;101938;-64
2023/01/25 04:43:47;;;;;;;25.77;18.23;;;;;;;0.72;100.00;97683.31;5029100;28;105643;-64
2023/01/25 04:46:15;;;;;;;26.30;17.63;;;;;;;0.67;100.00;97685.59;5029694;28;102253;-64
2023/01/25 04:48:42;;;;;;;23.23;17.07;;;;;;;0.69;100.00;97686.25;5030727;28;105067;-64
2023/01/25 04:51:09;;;;;;;24.67;17.70;;;;;;;0.62;100.00;97680.00;5029409;28;105051;-64
2023/01/25 04:53:38;;;;;;;24.47;18.07;;;;;;;0.53;100.00;97676.53;5030058;28;101940;-64
2023/01/25 04:56:07;;;;;;;24.77;18.37;;;;;;;0.50;100.00;97678.66;5030275;28;104841;-64
2023/01/25 04:58:43;;;;;;;23.40;17.67;;;;;;;0.49;100.00;97675.19;5029238;28;105585;-64
2023/01/25 05:01:11;;;;;;;24.73;18.43;;;;;;;0.59;100.00;97672.47;5029602;28;101953;-64
2023/01/25 05:03:38;;;;;;;26.47;18.53;;;;;;;0.64;100.00;97678.03;5033943;27;103244;-64
2023/01/25 05:06:09;;;;;;;25.03;17.73;;;;;;;0.64;100.00;97675.44;5029500;28;101780;-64
2023/01/25 05:08:37;;;;;;;25.80;17.57;;;;;;;0.66;100.00;97676.09;5029825;28;105230;-64
2023/01/25 05:11:10;;;;;;;27.20;18.83;;;;;;;0.77;100.00;97671.38;5030598;27;102495;-64
2023/01/25 05:13:38;;;;;;;25.33;18.43;;;;;;;0.68;100.00;97668.91;5028418;27;102113;-64
2023/01/25 05:16:29;;;;;;;26.00;17.90;;;;;;;0.69;100.00;97670.53;5029857;28;103407;-64
2023/01/25 05:18:56;;;;;;;26.67;19.30;;;;;;;0.70;100.00;97672.16;5029095;28;105059;-64
2023/01/25 05:24:18;;;;;;;25.43;18.20;;;;;;;0.68;100.00;97674.13;5029463;28;105695;-64
2023/01/25 05:27:02;;;;;;;26.80;18.70;;;;;;;0.63;100.00;97665.94;5032688;28;105864;-64
2023/01/25 05:29:39;;;;;;;25.30;17.00;;;;;;;0.66;100.00;97660.41;5029661;28;104470;-63
2023/01/25 05:32:10;;;;;;;28.73;20.33;;;;;;;0.58;100.00;97657.75;5029171;28;105505;-64
2023/01/25 05:34:39;;;;;;;28.20;20.10;;;;;;;0.55;100.00;97653.63;5029422;28;102022;-64
2023/01/25 05:37:09;;;;;;;25.73;19.37;;;;;;;0.60;100.00;97651.38;5029635;28;104980;-64
2023/01/25 05:39:42;;;;;;;25.77;18.23;;;;;;;0.46;100.00;97645.91;5028996;28;105365;-64
2023/01/25 05:42:12;;;;;;;26.23;19.37;;;;;;;0.62;100.00;97648.59;5029330;28;101958;-64
2023/01/25 05:44:39;;;;;;;26.20;19.23;;;;;;;0.60;100.00;97640.09;5029764;28;104812;-64
2023/01/25 05:47:12;;;;;;;25.57;18.67;;;;;;;0.67;100.00;97651.56;5028123;28;105253;-64
2023/01/25 05:49:39;;;;;;;26.80;18.47;;;;;;;0.73;100.00;97641.25;5032165;28;101814;-64
2023/01/25 05:52:15;;;;;;;26.63;18.90;;;;;;;0.76;100.00;97640.13;5029024;28;105109;-64
2023/01/25 05:54:45;;;;;;;25.53;18.50;;;;;;;0.68;100.00;97648.78;5029384;28;101963;-62
2023/01/25 05:57:16;;;;;;;22.13;16.73;;;;;;;0.53;100.00;97641.69;5029288;28;105058;-63
2023/01/25 05:59:43;;;;;;;24.40;18.30;;;;;;;0.65;100.00;97643.88;5028378;28;105523;-63
2023/01/25 06:02:12;;;;;;;23.63;17.30;;;;;;;0.63;100.00;97645.00;5029007;27;102119;-63
2023/01/25 06:04:40;;;;;;;22.70;16.70;;;;;;;0.61;100.00;97649.59;5030299;28;102280;-63
2023/01/25 06:07:09;;;;;;;24.60;16.40;;;;;;;0.62;100.00;97640.75;5028517;28;105781;-63
2023/01/25 06:09:37;;;;;;;23.37;17.47;;;;;;;0.68;100.00;97640.13;5028924;28;101868;-63
2023/01/25 06:12:06;;;;;;;23.53;16.07;;;;;;;0.49;100.00;97633.34;5031788;28;104933;-63
2023/01/25 06:14:33;;;;;;;23.70;16.37;;;;;;;0.57;100.00;97635.16;5028848;28;102259;-63
2023/01/25 06:17:02;;;;;;;23.07;16.53;;;;;;;0.50;100.00;97634.97;5028592;28;105149;-63
2023/01/25 06:19:49;;;;;;;23.43;15.40;;;;;;;0.66;100.00;97634.22;5028195;28;103632;-63
2023/01/25 06:22:23;;;;;;;22.30;16.60;;;;;;;0.68;100.00;97627.03;5028312;28;101874;-63
2023/01/25 06:24:50;;;;;;;22.23;16.70;;;;;;;0.62;100.00;97632.91;5028396;28;105127;-63
2023/01/25 06:27:18;;;;;;;22.83;16.67;;;;;;;0.59;100.00;97633.19;5029305;27;102670;-63
2023/01/25 06:29:45;;;;;;;23.60;17.27;;;;;;;0.54;100.00;97638.09;5028502;28;102132;-63
2023/01/25 06:32:11;;;;;;;26.87;17.57;;;;;;;0.54;100.00;97625.84;5029830;27;102459;-63
2023/01/25 06:34:38;;;;;;;23.77;16.83;;;;;;;0.70;100.00;97638.13;5032395;27;102123;-63
2023/01/25 06:37:09;;;;;;;26.70;17.13;;;;;;;0.67;100.00;97630.63;5027342;28;104874;-63
2023/01/25 06:39:36;;;;;;;21.83;16.00;;;;;;;0.71;100.00;97632.75;5027328;28;106331;-63
2023/01/25 06:42:03;;;;;;;23.03;16.50;;;;;;;0.69;100.00;97633.88;5028187;28;101862;-63
2023/01/25 06:44:31;;;;;;;23.33;17.03;;;;;;;0.54;100.00;97640.69;5029801;27;102296;-63
2023/01/25 06:46:58;;;;;;;20.87;16.17;;;;;;;0.69;100.00;97639.13;5028632;27;102477;-63
2023/01/25 06:49:25;;;;;;;22.73;16.27;;;;;;;0.65;100.00;97630.78;5029451;27;102227;-63
2023/01/25 06:51:52;;;;;;;24.63;16.77;;;;;;;0.47;100.00;97624.84;5027679;28;103613;-63
2023/01/25 06:54:19;;;;;;;23.63;17.57;;;;;;;0.65;100.00;97632.56;5030745;28;102561;-63
2023/01/25 06:56:46;;;;;;;20.67;16.20;;;;;;;0.66;100.00;97636.84;5027694;28;102476;-63
2023/01/25 06:59:14;;;;;;;22.03;15.90;;;;;;;0.62;100.00;97628.47;5027251;28;105671;-63
2023/01/25 07:01:43;;;;;;;20.77;15.50;;;;;;;0.60;100.00;97627.00;5029003;27;101800;-63
2023/01/25 07:04:12;;;;;;;22.50;16.40;;;;;;;0.42;100.00;97621.88;5027416;28;104778;-63
2023/01/25 07:06:39;;;;;;;23.30;16.50;;;;;;;0.38;100.00;97614.47;5028782;27;103255;-63
2023/01/25 07:09:07;;;;;;;24.03;16.77;;;;;;;0.37;100.00;97610.22;5027690;28;101936;-63
2023/01/25 07:11:34;;;;;;;24.63;17.60;;;;;;;0.38;100.00;97614.47;5027453;28;105780;-63
2023/01/25 07:14:02;;;;;;;24.13;17.57;;;;;;;0.24;100.00;97602.00;5028574;27;102755;-63
2023/01/25 07:16:35;;;;;;;25.80;18.30;;;;;;;0.28;100.00;97598.09;5031120;28;102032;-63
2023/01/25 07:19:03;;;;;;;25.67;18.10;;;;;;;0.31;100.00;97598.59;5026530;28;105224;-63
2023/01/25 07:21:30;;;;;;;24.33;17.20;;;;;;;0.14;100.00;97598.69;5027721;28;101977;-63
2023/01/25 07:24:00;;;;;;;26.47;17.57;;;;;;;0.12;100.00;97609.28;5028792;27;102494;-63
2023/01/25 07:26:27;;;;;;;24.50;16.50;;;;;;;0.18;100.00;97603.44;5028382;27;103324;-63
2023/01/25 07:28:56;;;;;;;24.47;17.13;;;;;;;0.24;100.00;97604.63;5027255;28;101950;-63
2023/01/25 07:31:23;;;;;;;24.57;17.93;;;;;;;0.23;100.00;97600.38;5027148;28;105369;-63
2023/01/25 07:33:51;;;;;;;26.13;18.00;;;;;;;0.21;100.00;97591.84;5026733;28;105361;-63
2023/01/25 07:36:20;;;;;;;24.30;17.83;;;;;;;0.31;100.00;97598.59;5026955;28;101910;-63
2023/01/25 07:38:47;;;;;;;24.17;17.00;;;;;;;0.38;100.00;97599.59;5030174;28;105003;-63
2023/01/25 07:41:15;;;;;;;24.63;16.90;;;;;;;0.33;100.00;97595.84;5027308;28;101929;-63
2023/01/25 07:43:42;;;;;;;25.23;17.03;;;;;;;0.28;100.00;97587.63;5026929;28;105146;-63
2023/01/25 07:46:12;;;;;;;22.67;16.60;;;;;;;0.35;100.00;97584.25;5026777;28;105579;-63
2023/01/25 07:48:40;;;;;;;22.80;17.00;;;;;;;0.29;100.00;97589.28;5031320;27;101827;-63
2023/01/25 07:51:21;;;;;;;25.40;17.53;;;;;;;0.22;100.00;97588.28;5030832;28;105173;-63
2023/01/25 07:53:53;;;;;;;25.03;17.53;;;;;;;0.25;100.00;97590.56;5013263;28;106333;-63
2023/01/25 07:56:22;;;;;;;24.27;16.97;;;;;;;0.25;100.00;97593.16;5031679;27;101740;-63
2023/01/25 07:58:49;;;;;;;23.83;16.63;;;;;;;0.26;100.00;97595.63;5030552;28;105309;-63
2023/01/25 08:01:18;;;;;;;24.87;17.50;;;;;;;0.20;100.00;97593.66;5033520;28;106229;-63
2023/01/25 08:03:45;;;;;;;27.93;17.03;;;;;;;0.24;100.00;97600.19;5031011;28;104085;-63
2023/01/25 08:06:13;;;;;;;27.80;17.87;;;;;;;0.31;100.00;97597.78;5029688;28;104951;-63
2023/01/25 08:08:42;;;;;;;26.00;17.43;;;;;;;0.40;100.00;97608.09;5030329;28;101904;-63
2023/01/25 08:11:14;;;;;;;26.40;17.03;;;;;;;0.44;100.00;97598.16;5030417;28;105252;-63
2023/01/25 08:13:44;;;;;;;27.03;18.00;;;;;;;0.56;100.00;97594.28;5029716;28;105655;-63
2023/01/25 08:16:12;;;;;;;24.10;16.53;;;;;;;0.62;100.00;97591.00;5031865;27;101807;-63
2023/01/25 08:18:39;;;;;;;23.47;16.83;;;;;;;0.65;100.00;97598.53;5029713;28;105722;-63
2023/01/25 08:21:06;;;;;;;24.90;17.33;;;;;;;0.67;100.00;97605.25;5029424;28;106007;-63
2023/01/25 08:23:32;;;;;;;25.17;17.77;;;;;;;0.67;100.00;97596.59;5034724;27;101761;-63
2023/01/25 08:26:02;;;;;;;27.57;17.33;;;;;;;0.63;100.00;97603.13;5030113;28;105068;-63
2023/01/25 08:28:30;;;;;;;24.37;16.93;;;;;;;0.76;100.00;97598.22;5029927;28;101898;-63
2023/01/25 08:31:05;;;;;;;25.60;18.37;;;;;;;0.62;100.00;97597.06;5031385;27;102808;-63
2023/01/25 08:33:32;;;;;;;25.10;17.30;;;;;;;0.63;100.00;97597.88;5029537;28;105604;-63
2023/01/25 08:35:58;;;;;;;27.90;19.03;;;;;;;0.60;100.00;97583.31;5029723;28;101782;-63
2023/01/25 08:38:25;;;;;;;26.70;18.07;;;;;;;0.75;100.00;97588.75;5029717;28;105565;-63
2023/01/25 08:40:52;;;;;;;25.47;17.77;;;;;;;0.65;100.00;97580.22;5029391;28;105249;-63
2023/01/25 08:43:19;;;;;;;24.77;17.30;;;;;;;0.71;100.00;97584.84;5033244;28;101918;-63
2023/01/25 08:45:48;;;;;;;23.57;17.60;;;;;;;0.68;100.00;97585.16;5029657;28;105943;-63
2023/01/25 08:48:15;;;;;;;25.60;17.77;;;;;;;0.59;100.00;97576.44;5030735;28;101844;-63
2023/01/25 08:50:46;;;;;;;27.00;17.40;;;;;;;0.55;100.00;97580.34;5029800;28;103953;-63
2023/01/25 08:53:13;;;;;;;23.60;16.60;;;;;;;0.62;100.00;97576.13;5029075;28;104144;-63
2023/01/25 08:55:41;;;;;;;26.03;17.83;;;;;;;0.68;100.00;97580.75;5029345;28;101892;-63
2023/01/25 08:58:10;;;;;;;23.13;16.50;;;;;;;0.62;100.00;97575.31;5029425;27;104141;-63
2023/01/25 09:00:37;;;;;;;25.37;17.23;;;;;;;0.54;100.00;97578.72;5028056;28;105441;-63
2023/01/25 09:03:05;;;;;;;25.63;17.30;;;;;;;0.40;100.00;97581.13;5029372;28;102000;-63
2023/01/25 09:05:33;;;;;;;24.33;16.20;;;;;;;0.40;100.00;97583.75;5032597;28;105430;-63
2023/01/25 09:08:01;;;;;;;22.07;16.23;;;;;;;0.57;100.00;97582.81;5029186;28;102491;-63
2023/01/25 09:10:28;;;;;;;25.43;15.50;;;;;;;0.66;100.00;97589.72;5030695;27;102559;-63
2023/01/25 09:12:55;;;;;;;23.53;16.33;;;;;;;0.64;100.00;97591.66;5028793;28;105351;-63
2023/01/25 09:15:22;;;;;;;21.93;16.03;;;;;;;0.71;100.00;97574.38;5029515;28;101801;-63
2023/01/25 09:17:51;;;;;;;22.60;16.77;;;;;;;0.82;100.00;97577.47;5029280;28;104790;-63
2023/01/25 09:20:20;;;;;;;23.77;17.47;;;;;;;0.96;100.00;97578.66;5028344;28;105328;-63
2023/01/25 09:22:47;;;;;;;23.67;16.87;;;;;;;1.12;100.00;97574.25;5028852;28;101977;-63
2023/01/25 09:25:14;;;;;;;25.17;17.47;;;;;;;1.10;100.00;97564.91;5029416;28;105741;-63
2023/01/25 09:27:42;;;;;;;25.80;18.27;;;;;;;1.13;100.00;97559.34;5032242;28;105365;-63
2023/01/25 09:30:11;;;;;;;26.23;17.80;;;;;;;1.26;100.00;97559.69;5030582;27;102612;-63
2023/01/25 09:32:39;;;;;;;24.37;17.10;;;;;;;1.26;100.00;97559.69;5028987;28;104408;-63
2023/01/25 09:35:07;;;;;;;25.27;17.17;;;;;;;1.33;100.00;97555.41;5028884;28;101838;-63
2023/01/25 09:37:35;;;;;;;22.63;16.27;;;;;;;1.45;100.00;97554.09;5029121;28;104821;-63
2023/01/25 09:40:03;;;;;;;21.83;15.60;;;;;;;1.40;100.00;97553.75;5028331;28;105521;-64
2023/01/25 09:43:06;;;;;;;25.17;16.87;;;;;;;1.30;100.00;97548.69;5029360;28;101889;-64
2023/01/25 09:45:35;;;;;;;24.77;17.63;;;;;;;1.39;100.00;97545.09;5018498;28;104803;-63
2023/01/25 09:48:13;;;;;;;23.47;16.20;;;;;;;1.41;100.00;97539.66;5028143;28;105274;-63
2023/01/25 09:50:58;;;;;;;23.97;17.17;;;;;;;1.45;100.00;97548.84;5033889;27;101907;-63
2023/01/25 09:53:34;;;;;;;27.20;19.23;;;;;;;1.54;100.00;97550.47;5027897;28;105514;-63
2023/01/25 09:56:08;;;;;;;27.93;17.73;;;;;;;1.50;100.00;97539.53;5011645;28;101861;-63
2023/01/25 09:58:40;;;;;;;25.93;17.73;;;;;;;1.51;100.00;97542.94;5030428;27;102349;-63
2023/01/25 10:01:19;;;;;;;25.07;17.00;;;;;;;1.51;100.00;97543.78;5028138;28;105046;-63
2023/01/25 10:03:53;;;;;;;24.53;17.47;;;;;;;1.51;100.00;97542.94;5028636;28;101764;-63
2023/01/25 10:06:23;;;;;;;25.03;17.57;;;;;;;1.53;100.00;97536.53;5028506;28;104392;-63
2023/01/25 10:09:00;;;;;;;23.23;17.20;;;;;;;1.36;100.00;97539.34;5027633;28;106762;-63
2023/01/25 10:11:30;;;;;;;24.07;17.07;;;;;;;1.26;100.00;97529.03;5028428;28;101761;-63
2023/01/25 10:13:58;;;;;;;22.27;15.73;;;;;;;1.20;100.00;97531.53;5031372;28;105604;-63
2023/01/25 10:16:29;;;;;;;22.87;17.50;;;;;;;1.06;100.00;97527.75;5028439;28;101758;-63
2023/01/25 10:19:05;;;;;;;23.80;16.43;;;;;;;1.10;100.00;97523.81;5027520;28;104800;-63
2023/01/25 10:21:38;;;;;;;25.10;18.20;;;;;;;1.23;100.00;97521.53;5029064;27;102542;-63
2023/01/25 10:27:54;;;;;;;26.43;19.03;;;;;;;1.33;100.00;97513.50;5050633;27;101792;-62
2023/01/25 10:30:27;;;;;;;26.83;18.27;;;;;;;1.30;100.00;97503.31;5045920;27;102852;-62
2023/01/25 10:32:57;;;;;;;23.57;16.97;;;;;;;1.47;100.00;97505.75;5045147;27;101831;-62
2023/01/25 10:35:29;;;;;;;25.63;18.03;;;;;;;1.44;100.00;97500.03;5045045;27;105597;-62
2023/01/25 10:38:03;;;;;;;25.67;18.47;;;;;;;1.56;100.00;97493.47;5044770;27;105437;-62
2023/01/25 10:40:41;;;;;;;25.90;17.90;;;;;;;1.54;100.00;97491.00;5044916;27;101857;-62
2023/01/25 10:43:18;;;;;;;25.90;17.97;;;;;;;1.57;100.00;97493.28;5045100;27;104246;-62
2023/01/25 10:45:45;;;;;;;23.53;17.50;;;;;;;1.45;100.00;97483.31;5044362;27;105132;-62
2023/01/25 10:48:18;;;;;;;25.13;17.13;;;;;;;1.30;100.00;97484.97;5048228;27;101877;-62
2023/01/25 10:50:48;;;;;;;26.30;17.93;;;;;;;1.27;100.00;97473.03;5045848;27;102723;-62
2023/01/25 10:53:32;;;;;;;27.30;18.63;;;;;;;1.40;100.00;97472.53;5044549;27;102263;-62
2023/01/25 10:56:21;;;;;;;28.57;18.83;;;;;;;1.36;100.00;97468.59;5044477;27;106035;-62
2023/01/25 10:58:53;;;;;;;25.23;17.77;;;;;;;1.32;100.00;97462.06;5037654;27;106018;-62
2023/01/25 11:01:38;;;;;;;27.43;18.73;;;;;;;1.39;100.00;97455.16;5044832;27;102079;-62
2023/01/25 11:04:24;;;;;;;27.60;19.37;;;;;;;1.27;100.00;97451.28;5044489;27;105228;-62
2023/01/25 11:06:51;;;;;;;25.97;18.53;;;;;;;1.45;100.00;97451.88;5043932;27;105422;-62
2023/01/25 11:09:39;;;;;;;24.90;18.30;;;;;;;1.31;100.00;97447.34;5044598;27;101999;-62
2023/01/25 11:12:18;;;;;;;26.27;17.70;;;;;;;1.41;100.00;97442.72;5047308;27;105241;-62
2023/01/25 11:14:49;;;;;;;27.03;18.47;;;;;;;1.43;100.00;97446.00;5044455;27;101888;-62
2023/01/25 11:17:26;;;;;;;24.77;18.43;;;;;;;1.39;100.00;97442.06;5044540;27;104920;-62
2023/01/25 11:20:20;;;;;;;27.33;19.23;;;;;;;1.43;100.00;97432.91;5045176;27;103502;-62
2023/01/25 11:22:52;;;;;;;27.90;19.37;;;;;;;1.30;100.00;97428.16;5078187;27;101934;-62
2023/01/25 11:25:31;;;;;;;26.50;18.07;;;;;;;1.34;100.00;97431.28;5043749;27;105248;-62
2023/01/25 11:28:16;;;;;;;28.50;19.50;;;;;;;1.33;100.00;97424.41;5043765;27;105653;-62
2023/01/25 11:30:45;;;;;;;31.83;18.90;;;;;;;1.20;100.00;97421.50;5044016;27;101824;-62